createdAt,value
2023-02-08T00:01:22.685Z,18.27
2023-02-08T00:03:50.564Z,14.65
2023-02-08T00:06:18.612Z,15.55
2023-02-08T00:08:46.497Z,15.10
2023-02-08T00:11:13.857Z,18.13
2023-02-08T00:13:42.405Z,16.63
2023-02-08T00:16:10.375Z,16.65
2023-02-08T00:18:37.742Z,18.60
2023-02-08T00:21:10.072Z,17.20
2023-02-08T00:23:37.559Z,19.15
2023-02-08T00:26:05.337Z,16.38
2023-02-08T00:28:32.632Z,18.88
2023-02-08T00:30:59.997Z,16.67
2023-02-08T00:33:27.338Z,18.27
2023-02-08T00:36:02.349Z,14.85
2023-02-08T00:38:30.073Z,16.98
2023-02-08T00:40:57.369Z,16.65
2023-02-08T00:43:24.830Z,17.42
2023-02-08T00:45:56.552Z,19.30
2023-02-08T00:48:26.261Z,15.80
2023-02-08T00:51:09.994Z,16.90
2023-02-08T00:53:39.227Z,17.48
2023-02-08T00:56:08.121Z,19.27
2023-02-08T00:58:35.929Z,17.75
2023-02-08T01:01:05.261Z,17.33
2023-02-08T01:03:38.385Z,16.63
2023-02-08T01:06:08.396Z,18.13
2023-02-08T01:08:36.165Z,17.55
2023-02-08T01:11:09.615Z,17.40
2023-02-08T01:13:38.476Z,16.90
2023-02-08T01:16:14.347Z,18.58
2023-02-08T01:18:43.455Z,16.92
2023-02-08T01:21:13.456Z,22.20
2023-02-08T01:23:41.566Z,17.08
2023-02-08T01:26:10.501Z,18.10
2023-02-08T01:28:39.950Z,18.42
2023-02-08T01:31:12.832Z,18.88
2023-02-08T01:33:40.223Z,19.67
2023-02-08T01:36:08.435Z,19.77
2023-02-08T01:38:37.612Z,16.77
2023-02-08T01:41:07.023Z,21.08
2023-02-08T01:43:55.680Z,19.00
2023-02-08T01:46:23.540Z,17.95
2023-02-08T01:48:51.799Z,21.73
2023-02-08T01:51:23.739Z,19.17
2023-02-08T01:53:52.603Z,20.08
2023-02-08T01:56:31.871Z,20.30
2023-02-08T01:59:04.980Z,19.73
2023-02-08T02:01:33.008Z,20.38
2023-02-08T02:04:05.964Z,18.73
2023-02-08T02:06:40.782Z,24.25
2023-02-08T02:09:14.358Z,22.58
2023-02-08T02:11:42.520Z,18.38
2023-02-08T02:14:10.625Z,20.73
2023-02-08T02:16:38.093Z,21.67
2023-02-08T02:19:11.388Z,22.42
2023-02-08T02:21:46.070Z,19.27
2023-02-08T02:24:35.023Z,21.10
2023-02-08T02:27:11.142Z,18.88
2023-02-08T02:29:56.965Z,21.13
2023-02-08T02:32:34.720Z,22.00
2023-02-08T02:35:36.958Z,22.63
2023-02-08T02:38:23.202Z,21.75
2023-02-08T02:40:50.483Z,18.98
2023-02-08T02:43:42.331Z,19.98
2023-02-08T02:46:25.755Z,22.10
2023-02-08T02:49:15.360Z,28.37
2023-02-08T02:51:50.984Z,19.80
2023-02-08T02:54:34.082Z,20.75
2023-02-08T02:57:06.000Z,20.52
2023-02-08T02:59:35.526Z,20.95
2023-02-08T03:02:04.323Z,18.02
2023-02-08T03:04:34.777Z,19.80
2023-02-08T03:07:11.442Z,20.95
2023-02-08T03:10:07.424Z,20.63
2023-02-08T03:12:34.690Z,19.40
2023-02-08T03:15:11.774Z,21.55
2023-02-08T03:17:57.390Z,21.13
2023-02-08T03:23:53.223Z,21.20
2023-02-08T03:26:43.576Z,20.50
2023-02-08T03:29:23.589Z,25.83
2023-02-08T03:31:58.051Z,24.08
2023-02-08T03:37:44.192Z,20.80
2023-02-08T03:40:43.357Z,25.08
2023-02-08T03:43:38.097Z,22.17
2023-02-08T03:48:41.754Z,23.48
2023-02-08T03:51:10.011Z,21.55
2023-02-08T03:53:40.645Z,22.80
2023-02-08T03:56:15.765Z,20.40
2023-02-08T03:58:49.982Z,23.35
2023-02-08T04:01:23.679Z,23.35
2023-02-08T04:03:54.103Z,22.58
2023-02-08T04:06:22.700Z,22.75
2023-02-08T04:08:50.775Z,23.42
2023-02-08T04:11:17.986Z,27.20
2023-02-08T04:13:45.248Z,24.65
2023-02-08T04:16:13.120Z,28.02
2023-02-08T04:18:40.475Z,21.77
2023-02-08T04:21:08.251Z,23.50
2023-02-08T04:23:35.583Z,23.63
2023-02-08T04:26:05.358Z,23.50
2023-02-08T04:28:32.612Z,22.25
2023-02-08T04:30:59.951Z,27.15
2023-02-08T04:33:27.356Z,26.63
2023-02-08T04:35:54.644Z,22.60
2023-02-08T04:38:21.990Z,24.80
2023-02-08T04:40:49.217Z,27.10
2023-02-08T04:43:16.560Z,23.67
2023-02-08T04:45:43.895Z,24.08
2023-02-08T04:48:12.049Z,24.23
2023-02-08T04:50:39.769Z,30.52
2023-02-08T04:53:07.293Z,22.05
2023-02-08T04:55:35.053Z,24.77
2023-02-08T04:58:02.508Z,23.02
2023-02-08T05:00:30.288Z,24.88
2023-02-08T05:02:58.988Z,27.33
2023-02-08T05:05:27.319Z,22.33
2023-02-08T05:07:54.829Z,22.98
2023-02-08T05:13:04.317Z,21.48
2023-02-08T05:15:31.563Z,24.05
2023-02-08T05:17:58.806Z,23.73
2023-02-08T05:20:26.128Z,25.20
2023-02-08T05:22:53.408Z,24.65
2023-02-08T05:25:20.644Z,23.55
2023-02-08T05:27:48.075Z,21.52
2023-02-08T05:30:15.781Z,23.95
2023-02-08T05:32:43.097Z,28.73
2023-02-08T05:35:10.434Z,23.25
2023-02-08T05:37:37.787Z,27.83
2023-02-08T05:40:05.334Z,22.33
2023-02-08T05:42:32.691Z,26.83
2023-02-08T05:44:59.937Z,23.38
2023-02-08T05:47:27.190Z,21.10
2023-02-08T05:49:54.498Z,22.88
2023-02-08T05:52:21.744Z,21.88
2023-02-08T05:54:49.395Z,20.55
2023-02-08T05:57:16.862Z,19.45
2023-02-08T05:59:44.064Z,21.50
2023-02-08T06:02:11.305Z,21.75
2023-02-08T06:04:39.328Z,20.60
2023-02-08T06:07:06.735Z,20.42
2023-02-08T06:09:34.065Z,21.90
2023-02-08T06:12:01.626Z,18.35
2023-02-08T06:14:28.956Z,22.25
2023-02-08T06:16:56.255Z,22.10
2023-02-08T06:19:23.526Z,19.73
2023-02-08T06:21:50.813Z,20.02
2023-02-08T06:24:18.199Z,18.77
2023-02-08T06:26:45.602Z,19.48
2023-02-08T06:29:12.946Z,23.83
2023-02-08T06:31:40.492Z,19.08
2023-02-08T06:34:08.291Z,19.40
2023-02-08T06:36:35.593Z,20.00
2023-02-08T06:39:03.347Z,17.98
2023-02-08T06:41:30.669Z,25.10
2023-02-08T06:43:59.671Z,19.05
2023-02-08T06:49:08.084Z,20.35
2023-02-08T06:51:35.451Z,20.60
2023-02-08T06:54:02.838Z,18.90
2023-02-08T06:56:30.205Z,21.83
2023-02-08T06:58:57.973Z,21.08
2023-02-08T07:04:06.723Z,21.33
2023-02-08T07:06:34.072Z,23.00
2023-02-08T07:09:02.791Z,21.13
2023-02-08T07:11:30.200Z,20.67
2023-02-08T07:13:57.558Z,21.67
2023-02-08T07:16:24.864Z,20.63
2023-02-08T07:18:52.304Z,21.58
2023-02-08T07:21:19.565Z,20.38
2023-02-08T07:23:46.840Z,20.67
2023-02-08T07:26:17.396Z,23.67
2023-02-08T07:28:44.861Z,21.58
2023-02-08T07:31:17.924Z,17.85
2023-02-08T07:33:45.243Z,18.17
2023-02-08T07:36:12.812Z,20.65
2023-02-08T07:38:40.350Z,21.15
2023-02-08T07:41:10.609Z,21.52
2023-02-08T07:43:39.643Z,20.60
2023-02-08T07:46:15.291Z,20.75
2023-02-08T07:48:43.169Z,23.10
2023-02-08T07:51:11.447Z,19.15
2023-02-08T07:53:39.457Z,19.50
2023-02-08T07:56:07.037Z,21.77
2023-02-08T07:58:34.443Z,20.88
2023-02-08T08:01:07.063Z,23.92
2023-02-08T08:03:43.438Z,20.52
2023-02-08T08:06:11.035Z,23.17
2023-02-08T08:08:39.872Z,24.38
2023-02-08T08:11:07.239Z,20.45
2023-02-08T08:13:34.577Z,23.60
2023-02-08T08:16:01.952Z,19.05
2023-02-08T08:18:29.473Z,18.02
2023-02-08T08:20:56.763Z,21.85
2023-02-08T08:23:24.263Z,24.08
2023-02-08T08:25:51.873Z,20.27
2023-02-08T08:28:19.402Z,20.27
2023-02-08T08:30:46.966Z,38.88
2023-02-08T08:33:14.636Z,31.35
2023-02-08T08:35:44.132Z,33.55
2023-02-08T08:38:11.415Z,29.90
2023-02-08T08:40:38.914Z,25.58
2023-02-08T08:43:06.541Z,25.60
2023-02-08T08:45:33.790Z,26.17
2023-02-08T08:48:01.930Z,31.45
2023-02-08T09:30:34.523Z,23.40
2023-02-08T09:33:01.952Z,25.50
2023-02-08T09:35:29.647Z,25.02
2023-02-08T09:37:58.585Z,26.90
2023-02-08T09:40:31.880Z,23.17
2023-02-08T09:43:11.400Z,22.52
2023-02-08T09:45:59.287Z,17.98
2023-02-08T09:48:35.169Z,22.55
2023-02-08T09:51:09.362Z,22.42
2023-02-08T09:53:40.652Z,19.48
2023-02-08T09:56:14.677Z,19.85
2023-02-08T09:58:46.389Z,19.77
2023-02-08T10:01:27.593Z,18.88
2023-02-08T10:04:03.513Z,21.52
2023-02-08T10:06:31.409Z,18.90
2023-02-08T10:09:02.933Z,20.00
2023-02-08T10:11:48.212Z,19.60
2023-02-08T10:14:23.913Z,23.50
2023-02-08T10:17:12.353Z,18.60
2023-02-08T10:19:50.307Z,19.10
2023-02-08T10:22:27.501Z,19.73
2023-02-08T10:24:58.115Z,18.73
2023-02-08T10:27:35.340Z,19.10
2023-02-08T10:30:19.519Z,17.27
2023-02-08T10:33:38.145Z,19.98
2023-02-08T10:36:17.274Z,20.35
2023-02-08T10:39:37.103Z,17.80
2023-02-08T10:42:10.775Z,22.20
2023-02-08T10:44:55.303Z,17.60
2023-02-08T10:47:35.612Z,20.35
2023-02-08T10:50:07.412Z,17.42
2023-02-08T10:52:34.981Z,19.48
2023-02-08T10:55:03.112Z,21.05
2023-02-08T14:29:27.420Z,18.08
2023-02-08T14:31:55.168Z,14.05
2023-02-08T14:34:25.620Z,13.70
2023-02-08T14:39:29.489Z,16.13
2023-02-08T14:42:04.075Z,14.27
2023-02-08T14:44:57.766Z,11.80
2023-02-08T14:47:48.228Z,13.18
2023-02-08T14:50:23.326Z,12.88
2023-02-08T14:53:07.806Z,12.75
2023-02-08T14:55:48.792Z,14.05
2023-02-08T14:58:28.471Z,12.05
2023-02-08T15:01:00.246Z,14.00
2023-02-08T15:03:30.549Z,11.75
2023-02-08T15:06:24.787Z,13.38
2023-02-08T15:08:53.709Z,14.93
2023-02-08T15:11:27.992Z,14.60
2023-02-08T15:14:00.574Z,12.63
2023-02-08T15:16:41.872Z,13.07
2023-02-08T15:21:37.353Z,12.45
2023-02-08T15:24:30.098Z,12.15
2023-02-08T15:26:58.079Z,18.83
2023-02-08T15:29:42.945Z,13.45
2023-02-08T15:32:20.940Z,15.90
2023-02-08T15:35:02.626Z,12.32
2023-02-08T15:37:34.234Z,14.27
2023-02-08T15:40:03.438Z,15.18
2023-02-08T15:42:34.056Z,15.63
2023-02-08T15:45:02.904Z,13.98
2023-02-08T15:47:36.137Z,13.90
2023-02-08T15:50:06.895Z,13.25
2023-02-08T15:52:36.892Z,12.55
2023-02-08T15:55:08.579Z,14.38
2023-02-08T15:58:15.510Z,16.50
2023-02-08T16:00:45.133Z,17.08
2023-02-08T16:03:23.739Z,12.55
2023-02-08T16:05:54.256Z,12.10
2023-02-08T16:08:28.410Z,13.43
2023-02-08T16:11:03.709Z,18.60
2023-02-08T16:13:33.636Z,12.45
2023-02-08T16:16:40.725Z,14.38
2023-02-08T16:19:29.038Z,15.45
2023-02-08T16:22:25.886Z,16.38
2023-02-08T16:24:53.295Z,14.65
2023-02-08T16:27:30.472Z,14.60
2023-02-08T16:29:59.403Z,14.68
2023-02-08T16:32:31.828Z,16.48
2023-02-08T16:35:01.401Z,14.00
2023-02-08T16:37:35.607Z,15.57
2023-02-08T16:40:43.851Z,19.15
2023-02-08T16:43:31.921Z,18.67
2023-02-08T16:46:21.533Z,15.63
2023-02-08T16:48:56.837Z,17.67
2023-02-08T16:51:34.248Z,17.80
2023-02-08T16:54:07.919Z,18.70
2023-02-08T16:56:36.435Z,17.15
2023-02-08T16:59:04.072Z,16.75
2023-02-08T17:01:32.183Z,17.92
2023-02-08T17:03:59.612Z,17.25
2023-02-08T17:06:31.476Z,19.85
2023-02-08T17:08:59.751Z,18.02
2023-02-08T17:11:27.724Z,18.02
2023-02-08T17:13:55.205Z,16.40
2023-02-08T17:16:24.951Z,17.83
2023-02-08T17:18:52.173Z,20.70
2023-02-08T17:21:19.698Z,19.27
2023-02-08T17:23:47.328Z,18.73
2023-02-08T17:26:27.481Z,19.27
2023-02-08T17:28:56.591Z,17.40
2023-02-08T17:31:25.253Z,19.30
2023-02-08T17:33:52.497Z,19.40
2023-02-08T17:36:19.806Z,16.58
2023-02-08T17:38:47.588Z,18.63
2023-02-08T17:41:19.046Z,18.55
2023-02-08T17:43:50.595Z,19.85
2023-02-08T17:46:21.532Z,21.30
2023-02-08T17:48:48.711Z,16.83
2023-02-08T17:51:19.444Z,19.17
2023-02-08T17:53:47.115Z,19.98
2023-02-08T17:56:20.723Z,19.27
2023-02-08T17:58:51.424Z,18.25
2023-02-08T18:01:24.151Z,21.05
2023-02-08T18:03:52.032Z,21.73
2023-02-08T18:06:20.194Z,20.17
2023-02-08T18:08:47.452Z,22.20
2023-02-08T18:11:19.601Z,21.40
2023-02-08T18:13:49.237Z,23.42
2023-02-08T18:16:19.762Z,21.77
2023-02-08T18:18:47.026Z,22.75
2023-02-08T18:21:19.146Z,21.38
2023-02-08T18:23:47.258Z,23.40
2023-02-08T18:26:17.633Z,20.88
2023-02-08T18:28:45.386Z,22.25
2023-02-08T18:31:15.524Z,26.95
2023-02-08T18:33:43.969Z,22.98
2023-02-08T18:36:11.717Z,23.38
2023-02-08T18:38:40.390Z,24.27
2023-02-08T18:41:09.446Z,23.70
2023-02-08T18:43:38.204Z,22.52
2023-02-08T18:46:09.890Z,24.65
2023-02-08T18:48:38.946Z,21.85
2023-02-08T18:51:08.172Z,22.65
2023-02-08T18:53:38.319Z,23.88
2023-02-08T18:56:07.508Z,24.10
2023-02-08T18:58:35.109Z,22.77
2023-02-08T19:01:11.087Z,25.20
2023-02-08T19:03:39.008Z,25.15
2023-02-08T19:06:09.215Z,27.10
2023-02-08T19:08:37.673Z,23.35
2023-02-08T19:11:15.044Z,22.05
2023-02-08T19:13:42.796Z,25.15
2023-02-08T19:16:10.517Z,24.95
2023-02-08T19:18:37.855Z,25.52
2023-02-08T19:21:07.136Z,29.67
2023-02-08T19:23:34.725Z,29.02
2023-02-08T19:26:19.375Z,32.78
2023-02-08T19:28:46.733Z,26.00
2023-02-08T19:31:18.234Z,26.00
2023-02-08T19:33:47.784Z,27.75
2023-02-08T19:36:19.177Z,24.80
2023-02-08T19:38:48.432Z,24.10
2023-02-08T19:41:22.848Z,29.40
2023-02-08T19:43:50.328Z,23.35
2023-02-08T19:46:20.769Z,27.05
2023-02-08T19:48:49.531Z,27.27
2023-02-08T19:51:17.937Z,25.75
2023-02-08T19:53:45.925Z,25.83
2023-02-08T19:56:16.044Z,27.63
2023-02-08T19:58:43.765Z,26.52
2023-02-08T20:01:14.808Z,27.33
2023-02-08T20:03:42.477Z,26.95
2023-02-08T20:06:31.368Z,30.13
2023-02-08T20:09:00.454Z,25.73
2023-02-08T20:11:30.714Z,28.13
2023-02-08T20:13:59.923Z,29.60
2023-02-08T20:16:31.597Z,27.23
2023-02-08T20:19:00.435Z,26.45
2023-02-08T20:21:28.343Z,26.42
2023-02-08T20:23:55.826Z,28.50
2023-02-08T20:26:26.671Z,28.40
2023-02-08T20:28:57.668Z,29.17
2023-02-08T20:31:31.430Z,31.63
2023-02-08T20:34:00.797Z,27.25
2023-02-08T20:36:32.052Z,29.05
2023-02-08T20:39:00.240Z,28.45
2023-02-08T20:41:33.022Z,31.65
2023-02-08T20:44:00.869Z,36.28
2023-02-08T20:46:34.599Z,31.98
2023-02-08T20:49:05.128Z,25.33
2023-02-08T20:51:32.562Z,27.80
2023-02-08T20:54:00.964Z,31.42
2023-02-08T20:56:31.749Z,26.70
2023-02-08T20:59:04.553Z,27.92
2023-02-08T21:01:33.961Z,29.88
2023-02-08T21:04:01.809Z,32.92
2023-02-08T21:06:31.925Z,29.90
2023-02-08T21:09:02.158Z,29.67
2023-02-08T21:11:31.749Z,33.80
2023-02-08T21:14:00.455Z,35.10
2023-02-08T21:16:28.397Z,35.92
2023-02-08T21:18:57.487Z,30.23
2023-02-08T21:21:25.598Z,29.23
2023-02-08T21:23:52.980Z,31.83
2023-02-08T21:26:21.321Z,29.70
2023-02-08T21:28:52.010Z,32.28
2023-02-08T21:31:22.286Z,29.33
2023-02-08T21:33:50.932Z,34.60
2023-02-08T21:36:21.861Z,31.88
2023-02-08T21:38:49.247Z,34.55
2023-02-08T21:41:29.356Z,28.88
2023-02-08T21:43:59.130Z,27.35
2023-02-08T21:46:28.563Z,30.17
2023-02-08T21:49:17.280Z,28.75
2023-02-08T21:52:05.229Z,28.02
2023-02-08T21:54:53.969Z,32.30
2023-02-08T21:57:25.994Z,30.00
2023-02-08T21:59:57.201Z,31.73
2023-02-08T22:02:27.948Z,35.28
2023-02-08T22:05:17.508Z,33.15
2023-02-08T22:07:48.875Z,32.78
2023-02-08T22:10:19.374Z,36.65
2023-02-08T22:12:47.422Z,34.60
2023-02-08T22:15:17.618Z,31.20
2023-02-08T22:17:45.366Z,36.60
2023-02-08T22:20:14.785Z,30.55
2023-02-08T22:22:42.003Z,33.70
2023-02-08T22:25:09.422Z,31.40
2023-02-08T22:27:39.455Z,32.25
2023-02-08T22:30:08.899Z,32.75
2023-02-08T22:32:39.131Z,29.48
2023-02-08T22:35:06.678Z,33.55
2023-02-08T22:37:34.396Z,34.60
2023-02-08T22:40:02.013Z,35.17
2023-02-08T22:42:29.346Z,32.88
2023-02-08T22:44:56.574Z,35.95
2023-02-08T22:47:23.946Z,35.38
2023-02-08T22:49:51.266Z,38.22
2023-02-08T22:52:18.578Z,39.10
2023-02-08T22:54:46.320Z,36.20
2023-02-08T22:57:13.515Z,33.30
2023-02-08T22:59:40.928Z,36.95
2023-02-08T23:02:08.266Z,35.13
2023-02-08T23:04:37.417Z,33.72
2023-02-08T23:07:05.163Z,35.50
2023-02-08T23:09:32.260Z,36.28
2023-02-08T23:11:59.572Z,37.40
2023-02-08T23:14:26.669Z,35.17
2023-02-08T23:16:53.988Z,35.85
2023-02-08T23:19:21.158Z,35.75
2023-02-08T23:21:48.391Z,35.65
2023-02-08T23:24:15.597Z,37.28
2023-02-08T23:26:43.156Z,33.00
2023-02-08T23:29:10.278Z,37.25
2023-02-08T23:31:40.860Z,33.17
2023-02-08T23:34:08.127Z,35.80
2023-02-08T23:36:35.236Z,36.03
2023-02-08T23:39:03.801Z,36.33
2023-02-08T23:41:31.091Z,34.40
2023-02-08T23:43:58.518Z,31.42
2023-02-08T23:46:28.105Z,32.88
2023-02-08T23:48:55.905Z,30.20
2023-02-08T23:51:24.641Z,30.40
2023-02-08T23:53:54.237Z,29.13
2023-02-08T23:56:31.937Z,29.88
2023-02-08T23:58:59.844Z,25.65
